Terminal Aerodrome Forecast
Issued by NWS Central Illinois

Home | Current Version | Previous Version | Text Only | Print | Product List | Glossary On
Versions: 1 2 3 4 5 6 7 8 9 10 11 12 13 14 15 16 17 18 19 20
000
FTUS43 KILX 301700
TAFPIA
TAF
KPIA 301740Z 3018/0118 05009KT P6SM SCT015
      TEMPO 3018/3019 BKN020
     FM010000 08006KT P6SM SCT250
     FM010900 10006KT 4SM BR SCT250
     FM011400 15009KT P6SM SCT040=

USA.gov is the U.S. government's official web portal to all federal, state and local government web resources and services.